createdAt,value
2023-02-08T00:02:40.750Z,19.85
2023-02-08T00:08:40.875Z,20.02
2023-02-08T00:11:26.387Z,20.73
2023-02-08T00:14:12.035Z,19.98
2023-02-08T00:16:57.601Z,19.42
2023-02-08T00:19:43.300Z,19.20
2023-02-08T00:22:29.020Z,23.27
2023-02-08T00:25:14.643Z,20.17
2023-02-08T00:28:00.426Z,19.85
2023-02-08T00:30:46.389Z,20.63
2023-02-08T00:33:32.293Z,19.35
2023-02-08T00:36:17.868Z,19.25
2023-02-08T00:39:03.798Z,20.00
2023-02-08T00:41:49.641Z,18.90
2023-02-08T00:44:35.082Z,18.30
2023-02-08T00:47:20.449Z,16.05
2023-02-08T00:50:06.754Z,16.55
2023-02-08T00:52:52.085Z,14.85
2023-02-08T00:55:37.645Z,15.18
2023-02-08T00:58:36.730Z,16.25
2023-02-08T01:01:22.384Z,16.17
2023-02-08T01:04:08.221Z,15.60
2023-02-08T01:06:53.605Z,16.42
2023-02-08T01:09:39.137Z,16.10
2023-02-08T01:12:25.045Z,17.42
2023-02-08T01:15:11.059Z,15.10
2023-02-08T01:17:57.106Z,16.17
2023-02-08T01:20:42.380Z,15.00
2023-02-08T01:23:28.009Z,16.70
2023-02-08T01:26:15.484Z,13.93
2023-02-08T01:29:03.307Z,16.67
2023-02-08T01:31:49.341Z,14.25
2023-02-08T01:34:34.802Z,13.93
2023-02-08T01:37:20.339Z,13.98
2023-02-08T01:40:06.822Z,11.73
2023-02-08T01:42:52.507Z,11.05
2023-02-08T01:45:38.095Z,13.15
2023-02-08T01:48:31.776Z,12.75
2023-02-08T01:51:24.273Z,12.85
2023-02-08T01:54:12.202Z,13.70
2023-02-08T01:56:57.980Z,14.75
2023-02-08T01:59:49.816Z,13.80
2023-02-08T02:02:37.127Z,13.68
2023-02-08T02:05:28.572Z,13.60
2023-02-08T02:12:53.595Z,14.20
2023-02-08T02:15:39.703Z,14.15
2023-02-08T02:18:30.596Z,13.07
2023-02-08T02:21:19.055Z,14.98
2023-02-08T02:24:26.290Z,14.20
2023-02-08T02:27:33.080Z,14.07
2023-02-08T02:30:40.344Z,14.20
2023-02-08T02:33:39.824Z,13.45
2023-02-08T02:36:34.241Z,13.18
2023-02-08T02:39:41.270Z,12.68
2023-02-08T02:43:04.460Z,12.45
2023-02-08T02:46:07.486Z,16.58
2023-02-08T02:49:27.233Z,13.75
2023-02-08T02:52:19.580Z,12.57
2023-02-08T02:55:14.801Z,11.18
2023-02-08T02:58:02.486Z,12.23
2023-02-08T03:00:56.603Z,11.73
2023-02-08T03:03:42.134Z,11.23
2023-02-08T03:06:53.255Z,11.30
2023-02-08T03:10:03.463Z,10.18
2023-02-08T03:12:52.080Z,11.05
2023-02-08T03:15:43.973Z,11.32
2023-02-08T03:18:52.275Z,11.07
2023-02-08T03:21:53.168Z,11.75
2023-02-08T03:24:55.341Z,12.00
2023-02-08T03:28:01.859Z,11.23
2023-02-08T03:31:15.356Z,10.30
2023-02-08T03:34:13.307Z,10.38
2023-02-08T03:37:08.023Z,8.43
2023-02-08T03:40:10.461Z,9.68
2023-02-08T03:43:01.552Z,8.57
2023-02-08T03:46:05.534Z,10.52
2023-02-08T03:49:09.310Z,8.15
2023-02-08T03:51:58.031Z,8.60
2023-02-08T03:54:50.972Z,7.55
2023-02-08T03:57:43.663Z,7.97
2023-02-08T04:00:33.444Z,7.68
2023-02-08T04:03:30.537Z,8.43
2023-02-08T04:06:17.084Z,9.43
2023-02-08T04:09:02.667Z,8.15
2023-02-08T04:11:48.138Z,10.00
2023-02-08T04:14:33.684Z,8.85
2023-02-08T04:17:19.249Z,9.27
2023-02-08T04:20:05.467Z,8.70
2023-02-08T04:22:50.722Z,8.43
2023-02-08T04:25:36.258Z,8.30
2023-02-08T04:28:21.982Z,8.40
2023-02-08T04:31:07.817Z,10.93
2023-02-08T04:33:53.062Z,9.45
2023-02-08T04:36:38.590Z,10.68
2023-02-08T04:39:24.224Z,9.00
2023-02-08T04:42:09.739Z,10.05
2023-02-08T04:44:54.929Z,9.57
2023-02-08T04:47:40.331Z,10.48
2023-02-08T04:50:26.270Z,8.77
2023-02-08T04:53:11.777Z,9.30
2023-02-08T04:55:57.547Z,9.10
2023-02-08T04:58:42.725Z,10.00
2023-02-08T05:01:28.405Z,9.85
2023-02-08T05:04:14.193Z,9.07
2023-02-08T05:07:00.011Z,9.68
2023-02-08T05:09:45.574Z,9.57
2023-02-08T05:12:31.074Z,11.20
2023-02-08T05:15:16.846Z,12.20
2023-02-08T05:18:02.228Z,12.15
2023-02-08T05:20:55.827Z,10.35
2023-02-08T05:23:41.073Z,12.48
2023-02-08T05:26:26.904Z,11.82
2023-02-08T05:29:12.176Z,14.38
2023-02-08T05:31:57.634Z,11.57
2023-02-08T05:34:43.352Z,10.25
2023-02-08T05:37:28.548Z,11.77
2023-02-08T05:40:14.064Z,10.07
2023-02-08T05:42:59.457Z,10.95
2023-02-08T05:45:44.978Z,9.85
2023-02-08T05:48:32.356Z,8.98
2023-02-08T05:51:17.908Z,9.13
2023-02-08T05:54:03.553Z,10.45
2023-02-08T05:56:49.304Z,9.63
2023-02-08T05:59:35.898Z,10.40
2023-02-08T06:02:21.838Z,10.60
2023-02-08T06:05:07.768Z,10.55
2023-02-08T06:07:53.331Z,12.52
2023-02-08T06:10:39.085Z,10.48
2023-02-08T06:13:25.326Z,12.98
2023-02-08T06:16:11.088Z,13.18
2023-02-08T06:18:57.093Z,15.07
2023-02-08T06:21:42.743Z,13.95
2023-02-08T06:24:28.116Z,14.55
2023-02-08T06:27:13.607Z,16.60
2023-02-08T06:29:59.147Z,14.15
2023-02-08T06:32:44.554Z,13.82
2023-02-08T06:35:29.731Z,14.20
2023-02-08T06:38:15.590Z,13.60
2023-02-08T06:41:01.021Z,13.80
2023-02-08T06:43:46.668Z,13.40
2023-02-08T06:46:32.059Z,14.00
2023-02-08T06:49:17.651Z,16.85
2023-02-08T06:52:03.276Z,15.85
2023-02-08T06:54:49.001Z,16.27
2023-02-08T06:57:34.700Z,14.43
2023-02-08T07:00:20.229Z,15.88
2023-02-08T07:03:05.696Z,17.63
2023-02-08T07:06:04.038Z,15.27
2023-02-08T07:08:50.468Z,18.42
2023-02-08T07:11:36.197Z,16.20
2023-02-08T07:14:22.062Z,16.45
2023-02-08T07:17:08.098Z,14.90
2023-02-08T07:19:54.035Z,13.70
2023-02-08T07:22:40.617Z,14.73
2023-02-08T07:25:26.566Z,13.93
2023-02-08T07:28:12.056Z,14.77
2023-02-08T07:30:57.614Z,16.77
2023-02-08T07:33:43.884Z,15.68
2023-02-08T07:36:29.295Z,16.00
2023-02-08T07:39:15.410Z,16.80
2023-02-08T07:42:01.174Z,18.60
2023-02-08T07:44:46.690Z,16.90
2023-02-08T07:47:32.463Z,18.20
2023-02-08T07:50:18.313Z,17.15
2023-02-08T07:53:03.876Z,18.25
2023-02-08T07:55:49.924Z,18.13
2023-02-08T07:58:35.489Z,17.17
2023-02-08T08:01:22.876Z,18.52
2023-02-08T08:04:08.770Z,17.25
2023-02-08T08:06:54.837Z,19.33
2023-02-08T08:09:40.612Z,16.20
2023-02-08T08:12:26.212Z,16.80
2023-02-08T08:15:11.750Z,16.42
2023-02-08T08:17:57.321Z,16.52
2023-02-08T08:20:42.854Z,15.18
2023-02-08T08:23:29.234Z,15.27
2023-02-08T08:26:18.199Z,16.50
2023-02-08T08:29:03.757Z,14.50
2023-02-08T08:31:49.831Z,14.82
2023-02-08T08:34:35.327Z,15.45
2023-02-08T08:37:20.967Z,14.30
2023-02-08T08:40:07.490Z,17.90
2023-02-08T08:42:52.897Z,15.63
2023-02-08T08:45:38.543Z,15.07
2023-02-08T08:48:23.958Z,16.95
2023-02-08T08:51:10.065Z,14.90
2023-02-08T08:53:55.937Z,14.63
2023-02-08T08:56:41.471Z,15.25
2023-02-08T08:59:28.216Z,17.00
2023-02-08T09:02:15.593Z,15.40
2023-02-08T09:05:02.709Z,16.35
2023-02-08T09:07:48.246Z,15.50
2023-02-08T09:10:34.042Z,14.82
2023-02-08T09:13:20.126Z,13.55
2023-02-08T09:16:10.623Z,15.48
2023-02-08T09:18:56.256Z,13.30
2023-02-08T09:21:43.017Z,13.70
2023-02-08T09:24:28.713Z,13.02
2023-02-08T09:27:14.985Z,13.65
2023-02-08T09:30:00.317Z,13.25
2023-02-08T09:32:46.070Z,13.82
2023-02-08T09:35:31.659Z,14.68
2023-02-08T09:38:17.606Z,13.45
2023-02-08T09:41:11.848Z,15.18
2023-02-08T09:44:14.459Z,12.93
2023-02-08T09:47:29.704Z,14.23
2023-02-08T09:50:47.680Z,14.68
2023-02-08T09:53:37.381Z,15.23
2023-02-08T09:56:29.738Z,15.48
2023-02-08T09:59:30.090Z,15.97
2023-02-08T10:02:23.189Z,16.88
2023-02-08T10:05:21.948Z,16.92
2023-02-08T10:08:11.942Z,17.75
2023-02-08T10:11:45.137Z,18.55
2023-02-08T10:14:46.052Z,17.48
2023-02-08T10:18:06.720Z,18.30
2023-02-08T10:21:18.904Z,17.48
2023-02-08T10:24:43.306Z,18.60
2023-02-08T10:27:40.898Z,19.10
2023-02-08T10:30:37.102Z,18.83
2023-02-08T10:33:40.456Z,18.83
2023-02-08T10:36:31.597Z,18.65
2023-02-08T10:39:23.712Z,19.35
2023-02-08T10:42:19.306Z,19.02
2023-02-08T10:45:24.381Z,20.83
2023-02-08T10:48:22.191Z,19.88
2023-02-08T10:51:16.844Z,19.85
2023-02-08T10:54:03.136Z,19.48
2023-02-08T10:57:01.026Z,20.00
2023-02-08T10:59:54.427Z,19.27
2023-02-08T11:02:43.492Z,18.63
2023-02-08T11:05:37.928Z,19.08
2023-02-08T11:08:25.347Z,20.15
2023-02-08T11:11:11.072Z,18.85
2023-02-08T11:14:13.987Z,19.23
2023-02-08T11:17:00.380Z,19.90
2023-02-08T11:19:46.429Z,18.20
2023-02-08T11:22:32.011Z,16.23
2023-02-08T11:25:39.327Z,15.27
2023-02-08T11:28:30.879Z,15.23
2023-02-08T11:31:21.156Z,14.98
2023-02-08T11:34:09.443Z,15.30
2023-02-08T11:36:57.133Z,13.57
2023-02-08T11:39:49.831Z,16.08
2023-02-08T11:42:44.397Z,15.73
2023-02-08T11:45:36.136Z,13.48
2023-02-08T11:48:36.656Z,13.07
2023-02-08T11:51:32.540Z,14.85
2023-02-08T11:54:39.306Z,14.75
2023-02-08T11:57:27.949Z,15.00
2023-02-08T12:00:19.727Z,14.82
2023-02-08T12:03:27.536Z,15.30
2023-02-08T12:06:40.675Z,16.23
2023-02-08T12:10:12.002Z,13.70
2023-02-08T12:13:11.090Z,15.43
2023-02-08T12:16:15.267Z,15.15
2023-02-08T12:19:19.775Z,16.23
2023-02-08T12:22:11.404Z,16.08
2023-02-08T12:25:18.579Z,18.20
2023-02-08T12:28:21.325Z,16.60
2023-02-08T12:31:14.846Z,16.75
2023-02-08T12:34:03.084Z,16.20
2023-02-08T12:37:25.300Z,15.27
2023-02-08T12:40:49.752Z,17.50
2023-02-08T12:44:06.108Z,17.27
2023-02-08T12:47:13.578Z,18.30
2023-02-08T12:50:20.086Z,15.68
2023-02-08T12:53:31.173Z,17.33
2023-02-08T12:56:22.061Z,16.42
2023-02-08T12:59:17.858Z,16.80
2023-02-08T13:02:27.129Z,17.20
2023-02-08T13:05:22.651Z,15.45
2023-02-08T13:08:33.791Z,16.83
2023-02-08T13:11:38.885Z,16.15
2023-02-08T13:14:46.346Z,14.77
2023-02-08T13:17:41.797Z,13.88
2023-02-08T13:20:45.826Z,13.00
2023-02-08T13:23:51.763Z,14.43
2023-02-08T13:26:40.122Z,13.52
2023-02-08T13:29:28.828Z,16.27
2023-02-08T13:32:32.446Z,15.80
2023-02-08T13:35:30.616Z,14.48
2023-02-08T13:38:35.264Z,14.68
2023-02-08T13:41:25.575Z,16.50
2023-02-08T13:44:29.825Z,16.95
2023-02-08T13:47:28.644Z,18.48
2023-02-08T13:50:43.254Z,18.45
2023-02-08T13:53:38.466Z,19.63
2023-02-08T13:56:42.757Z,18.75
2023-02-08T13:59:36.184Z,19.00
2023-02-08T14:02:27.096Z,19.70
2023-02-08T14:05:31.534Z,17.60
2023-02-08T14:08:37.098Z,17.05
2023-02-08T14:11:45.594Z,18.05
2023-02-08T14:14:39.864Z,18.40
2023-02-08T14:17:29.252Z,17.33
2023-02-08T14:20:40.158Z,18.58
2023-02-08T14:23:30.294Z,17.77
2023-02-08T14:26:24.101Z,17.63
2023-02-08T14:29:23.305Z,16.73
2023-02-08T14:32:09.536Z,17.60
2023-02-08T14:35:06.634Z,17.05
2023-02-08T14:38:24.208Z,17.15
2023-02-08T14:41:09.909Z,16.77
2023-02-08T14:43:55.748Z,15.10
2023-02-08T14:46:43.817Z,17.38
2023-02-08T14:49:37.569Z,17.05
2023-02-08T14:52:25.550Z,16.58
2023-02-08T14:55:22.009Z,15.95
2023-02-08T14:58:14.955Z,14.45
2023-02-08T15:01:06.261Z,15.38
2023-02-08T15:04:00.489Z,11.70
2023-02-08T15:07:33.659Z,8.85
2023-02-08T15:10:21.707Z,8.70
2023-02-08T15:13:20.093Z,7.97
2023-02-08T15:16:11.232Z,8.25
2023-02-08T15:18:56.902Z,8.98
2023-02-08T15:21:43.004Z,9.85
2023-02-08T15:24:29.759Z,9.85
2023-02-08T15:27:24.615Z,9.60
2023-02-08T15:30:29.261Z,11.55
2023-02-08T15:33:21.260Z,10.68
2023-02-08T15:36:14.690Z,10.88
2023-02-08T15:41:59.084Z,11.98
2023-02-08T15:44:45.191Z,10.73
2023-02-08T15:47:33.884Z,11.85
2023-02-08T15:50:22.686Z,12.98
2023-02-08T15:53:15.454Z,11.60
2023-02-08T15:56:04.530Z,11.70
2023-02-08T15:58:54.798Z,13.27
2023-02-08T16:01:40.334Z,12.90
2023-02-08T16:04:26.378Z,14.05
2023-02-08T16:07:31.972Z,12.95
2023-02-08T16:11:00.990Z,14.77
2023-02-08T16:13:49.907Z,14.63
2023-02-08T16:16:38.429Z,13.38
2023-02-08T16:19:32.799Z,14.05
2023-02-08T16:22:21.690Z,14.23
2023-02-08T16:25:34.665Z,14.15
2023-02-08T16:28:32.272Z,15.40
2023-02-08T16:31:22.253Z,15.02
2023-02-08T16:34:15.061Z,14.38
2023-02-08T16:37:02.572Z,14.15
2023-02-08T16:39:51.832Z,14.65
2023-02-08T16:42:44.243Z,14.32
2023-02-08T16:45:29.850Z,13.57
2023-02-08T16:48:36.210Z,14.93
2023-02-08T16:51:29.762Z,15.40
2023-02-08T16:54:18.343Z,14.02
2023-02-08T16:57:04.290Z,15.00
2023-02-08T16:59:50.668Z,15.40
2023-02-08T17:02:36.480Z,14.57
2023-02-08T17:05:24.049Z,15.50
2023-02-08T17:08:15.795Z,15.05
2023-02-08T17:11:02.050Z,15.18
2023-02-08T17:13:47.916Z,14.35
2023-02-08T17:16:35.368Z,14.85
2023-02-08T17:19:24.572Z,14.23
2023-02-08T17:22:10.215Z,14.30
2023-02-08T17:24:55.907Z,15.27
2023-02-08T17:27:47.297Z,14.82
2023-02-08T17:30:42.141Z,15.57
2023-02-08T17:33:29.463Z,16.40
2023-02-08T17:36:16.315Z,15.30
2023-02-08T17:39:05.255Z,17.40
2023-02-08T17:41:52.153Z,15.98
2023-02-08T17:44:38.144Z,15.55
2023-02-08T17:47:24.334Z,13.90
2023-02-08T17:50:12.533Z,15.27
2023-02-08T17:52:58.571Z,13.85
2023-02-08T17:55:46.172Z,14.63
2023-02-08T17:58:32.057Z,14.60
2023-02-08T18:01:20.578Z,14.52
2023-02-08T18:04:06.729Z,15.57
2023-02-08T18:06:52.238Z,15.10
2023-02-08T18:09:39.262Z,14.07
2023-02-08T18:12:27.054Z,15.35
2023-02-08T18:15:19.974Z,14.55
2023-02-08T18:18:06.597Z,16.42
2023-02-08T18:20:52.370Z,16.95
2023-02-08T18:23:38.168Z,15.43
2023-02-08T18:26:25.317Z,15.25
2023-02-08T18:29:11.237Z,15.10
2023-02-08T18:31:57.225Z,15.30
2023-02-08T18:34:45.250Z,16.17
2023-02-08T18:37:30.840Z,17.20
2023-02-08T18:40:18.664Z,15.70
2023-02-08T18:43:04.159Z,14.35
2023-02-08T18:46:12.344Z,14.20
2023-02-08T18:48:58.024Z,15.75
2023-02-08T18:51:45.510Z,17.48
2023-02-08T18:54:33.425Z,18.90
2023-02-08T18:57:22.261Z,17.42
2023-02-08T19:00:10.880Z,19.23
2023-02-08T19:02:58.237Z,18.60
2023-02-08T19:05:44.775Z,18.85
2023-02-08T19:08:31.574Z,18.17
2023-02-08T19:11:30.220Z,19.13
2023-02-08T19:14:16.723Z,18.02
2023-02-08T19:17:06.306Z,18.05
2023-02-08T19:19:54.688Z,18.50
2023-02-08T19:22:42.486Z,17.38
2023-02-08T19:25:35.247Z,15.77
2023-02-08T19:28:36.924Z,17.90
2023-02-08T19:31:28.938Z,17.30
2023-02-08T19:34:14.956Z,17.40
2023-02-08T19:37:00.824Z,15.38
2023-02-08T19:39:47.667Z,16.27
2023-02-08T19:42:40.388Z,15.57
2023-02-08T19:45:27.876Z,13.57
2023-02-08T19:48:15.017Z,16.25
2023-02-08T19:51:03.467Z,16.20
2023-02-08T19:54:14.148Z,15.18
2023-02-08T19:57:42.627Z,16.92
2023-02-08T20:00:31.687Z,16.98
2023-02-08T20:03:21.992Z,15.40
2023-02-08T20:06:23.769Z,17.27
2023-02-08T20:09:11.159Z,15.93
2023-02-08T20:11:58.061Z,18.08
2023-02-08T20:14:44.171Z,18.23
2023-02-08T20:17:29.919Z,17.88
2023-02-08T20:20:16.672Z,15.98
2023-02-08T20:23:11.242Z,17.38
2023-02-08T20:26:07.172Z,17.23
2023-02-08T20:28:57.996Z,17.73
2023-02-08T20:31:45.278Z,16.48
2023-02-08T20:34:31.341Z,15.98
2023-02-08T20:37:21.222Z,18.33
2023-02-08T20:40:07.447Z,17.13
2023-02-08T20:42:53.256Z,15.00
2023-02-08T20:45:41.750Z,16.52
2023-02-08T20:48:27.905Z,16.77
2023-02-08T20:51:16.691Z,15.98
2023-02-08T20:54:03.620Z,15.13
2023-02-08T20:56:49.366Z,17.70
2023-02-08T20:59:35.082Z,17.33
2023-02-08T21:02:23.486Z,16.92
2023-02-08T21:05:10.542Z,21.77
2023-02-08T21:07:56.786Z,16.85
2023-02-08T21:10:43.213Z,18.63
2023-02-08T21:13:29.127Z,17.10
2023-02-08T21:16:15.159Z,17.13
2023-02-08T21:19:01.482Z,17.92
2023-02-08T21:21:51.308Z,18.85
2023-02-08T21:24:37.017Z,18.90
2023-02-08T21:27:24.317Z,18.42
2023-02-08T21:30:10.660Z,18.73
2023-02-08T21:32:56.195Z,19.10
2023-02-08T21:35:41.742Z,19.15
2023-02-08T21:38:27.298Z,18.02
2023-02-08T21:41:20.184Z,19.20
2023-02-08T21:44:08.290Z,20.38
2023-02-08T21:46:55.948Z,20.75
2023-02-08T21:50:01.076Z,20.27
2023-02-08T21:53:05.851Z,19.88
2023-02-08T21:55:54.032Z,19.23
2023-02-08T21:58:40.436Z,19.73
2023-02-08T22:01:26.518Z,19.25
2023-02-08T22:04:11.994Z,19.40
2023-02-08T22:06:57.518Z,19.80
2023-02-08T22:09:43.544Z,18.50
2023-02-08T22:12:29.766Z,17.48
2023-02-08T22:15:19.105Z,17.27
2023-02-08T22:18:06.050Z,18.75
2023-02-08T22:20:55.328Z,17.25
2023-02-08T22:23:41.318Z,17.73
2023-02-08T22:26:27.697Z,17.80
2023-02-08T22:29:14.405Z,17.77
2023-02-08T22:31:59.880Z,17.27
2023-02-08T22:34:47.057Z,18.00
2023-02-08T22:37:33.687Z,18.17
2023-02-08T22:40:19.290Z,18.35
2023-02-08T22:43:04.769Z,18.23
2023-02-08T22:45:58.630Z,18.85
2023-02-08T22:48:44.526Z,19.65
2023-02-08T22:51:30.305Z,18.95
2023-02-08T22:54:16.065Z,18.23
2023-02-08T22:57:01.755Z,19.40
2023-02-08T22:59:47.889Z,18.83
2023-02-08T23:02:35.385Z,19.17
2023-02-08T23:05:21.064Z,21.55
2023-02-08T23:08:06.674Z,20.13
2023-02-08T23:10:59.702Z,20.65
2023-02-08T23:13:44.974Z,22.92
2023-02-08T23:16:30.876Z,21.67
2023-02-08T23:19:18.452Z,22.45
2023-02-08T23:22:04.088Z,24.42
2023-02-08T23:24:49.445Z,22.88
2023-02-08T23:27:34.902Z,23.27
2023-02-08T23:30:20.300Z,23.20
2023-02-08T23:33:06.502Z,22.20
2023-02-08T23:35:52.053Z,24.95
2023-02-08T23:38:38.892Z,24.95
2023-02-08T23:41:25.074Z,26.52
2023-02-08T23:44:10.301Z,25.67
2023-02-08T23:46:56.107Z,24.27
2023-02-08T23:49:41.812Z,25.85
2023-02-08T23:52:27.164Z,26.55
2023-02-08T23:55:13.007Z,24.67
2023-02-08T23:57:58.444Z,27.38
